createdAt,value
2023-08-17T00:02:29.598Z,101882.59
2023-08-17T00:07:34.824Z,101883.44
2023-08-17T00:12:38.568Z,101885.03
2023-08-17T00:17:42.840Z,101883.22
2023-08-17T00:22:47.978Z,101875.97
2023-08-17T00:27:51.706Z,101877.87
2023-08-17T00:32:55.533Z,101869.06
2023-08-17T00:38:01.426Z,101878.75
2023-08-17T00:43:05.983Z,101876.06
2023-08-17T00:48:10.953Z,101879.47
2023-08-17T00:53:17.386Z,101876.78
2023-08-17T00:58:22.225Z,101887.06
2023-08-17T01:03:28.491Z,101887.19
2023-08-17T01:08:33.884Z,101880.87
2023-08-17T01:13:44.702Z,101887.94
2023-08-17T01:18:49.910Z,101876.50
2023-08-17T01:24:00.215Z,101879.88
2023-08-17T01:29:04.881Z,101870.94
2023-08-17T01:34:13.338Z,101862.00
2023-08-17T01:39:19.444Z,101864.59
2023-08-17T01:44:23.312Z,101861.16
2023-08-17T01:49:28.491Z,101869.03
2023-08-17T01:54:33.772Z,101868.97
2023-08-17T01:59:37.530Z,101867.94
2023-08-17T02:04:41.277Z,101862.59
2023-08-17T02:09:47.039Z,101859.00
2023-08-17T02:14:50.772Z,101868.34
2023-08-17T02:19:54.574Z,101869.97
2023-08-17T02:24:59.697Z,101865.59
2023-08-17T02:30:03.640Z,101865.53
2023-08-17T02:35:08.799Z,101863.81
2023-08-17T02:40:14.329Z,101860.19
2023-08-17T02:45:18.136Z,101851.47
2023-08-17T02:50:21.889Z,101855.75
2023-08-17T02:55:26.973Z,101858.31
2023-08-17T03:00:30.706Z,101864.16
2023-08-17T03:05:36.187Z,101862.31
2023-08-17T03:10:41.302Z,101858.75
2023-08-17T03:15:45.067Z,101862.12
2023-08-17T03:20:48.910Z,101856.78
2023-08-17T03:25:55.426Z,101854.06
2023-08-17T03:30:59.678Z,101850.28
2023-08-17T03:36:03.901Z,101845.66
2023-08-17T03:41:09.825Z,101850.03
2023-08-17T03:46:13.908Z,101847.44
2023-08-17T03:51:17.831Z,101840.44
2023-08-17T03:56:22.976Z,101851.78
2023-08-17T04:01:26.798Z,101849.16
2023-08-17T04:06:31.729Z,101850.78
2023-08-17T04:11:38.522Z,101858.56
2023-08-17T04:16:42.562Z,101868.06
2023-08-17T04:21:46.376Z,101872.28
2023-08-17T04:26:51.777Z,101876.59
2023-08-17T04:31:55.769Z,101878.16
2023-08-17T04:36:59.708Z,101870.25
2023-08-17T04:42:06.594Z,101870.00
2023-08-17T04:47:11.447Z,101873.28
2023-08-17T04:52:15.542Z,101867.00
2023-08-17T04:57:21.523Z,101864.25
2023-08-17T05:02:25.700Z,101867.69
2023-08-17T05:07:30.255Z,101866.84
2023-08-17T05:12:35.874Z,101868.63
2023-08-17T05:17:40.122Z,101861.63
2023-08-17T05:22:45.610Z,101859.88
2023-08-17T05:27:51.208Z,101861.69
2023-08-17T05:32:55.120Z,101859.16
2023-08-17T05:37:59.095Z,101853.97
2023-08-17T05:43:04.473Z,101863.59
2023-08-17T05:48:08.644Z,101867.87
2023-08-17T05:53:12.410Z,101873.94
2023-08-17T05:58:17.503Z,101873.06
2023-08-17T06:03:21.549Z,101881.78
2023-08-17T06:08:25.319Z,101883.44
2023-08-17T06:13:30.588Z,101875.50
2023-08-17T06:18:34.376Z,101885.31
2023-08-17T06:23:38.080Z,101889.09
2023-08-17T06:28:43.222Z,101890.28
2023-08-17T06:33:47.393Z,101889.00
2023-08-17T06:38:51.146Z,101881.34
2023-08-17T06:43:56.256Z,101887.78
2023-08-17T06:49:00.044Z,101883.41
2023-08-17T06:54:03.782Z,101895.19
2023-08-17T06:59:09.024Z,101896.22
2023-08-17T07:04:12.832Z,101907.94
2023-08-17T07:09:16.620Z,101901.19
2023-08-17T07:14:22.948Z,101885.03
2023-08-17T07:19:48.696Z,101883.47
2023-08-17T07:24:50.897Z,101885.13
2023-08-17T07:29:56.162Z,101881.66
2023-08-17T07:34:59.922Z,101878.31
2023-08-17T07:40:05.323Z,101878.59
2023-08-17T07:45:11.473Z,101886.78
2023-08-17T07:50:15.318Z,101899.22
2023-08-17T07:55:19.085Z,101898.78
2023-08-17T08:00:24.224Z,101903.25
2023-08-17T08:05:28.221Z,101897.06
2023-08-17T08:10:32.025Z,101899.00
2023-08-17T08:15:37.244Z,101893.88
2023-08-17T08:20:40.965Z,101890.44
2023-08-17T08:25:44.717Z,101899.50
2023-08-17T08:30:49.845Z,101900.66
2023-08-17T08:35:53.788Z,101907.13
2023-08-17T08:40:57.563Z,101893.47
2023-08-17T08:46:03.689Z,101880.50
2023-08-17T08:51:10.585Z,101879.06
2023-08-17T08:56:14.994Z,101878.34
2023-08-17T09:01:20.356Z,101886.31
2023-08-17T09:06:27.535Z,101875.19
2023-08-17T09:11:31.291Z,101874.31
2023-08-17T09:16:36.544Z,101870.22
2023-08-17T09:21:40.274Z,101864.09
2023-08-17T09:26:44.120Z,101866.94
2023-08-17T09:31:49.493Z,101861.59
2023-08-17T09:36:53.237Z,101855.34
2023-08-17T09:41:57.328Z,101854.19
2023-08-17T09:47:03.010Z,101848.03
2023-08-17T09:52:07.245Z,101857.69
2023-08-17T09:57:12.008Z,101855.84
2023-08-17T10:02:21.140Z,101850.41
2023-08-17T10:07:34.298Z,101852.00
2023-08-17T10:12:39.521Z,101838.75
2023-08-17T10:17:53.395Z,101842.47
2023-08-17T10:23:07.459Z,101840.63
2023-08-17T10:28:12.163Z,101842.34
2023-08-17T10:33:18.189Z,101837.09
2023-08-17T10:38:22.032Z,101836.06
2023-08-17T10:43:35.247Z,101841.59
2023-08-17T10:48:40.432Z,101840.81
2023-08-17T10:53:46.004Z,101841.16
2023-08-17T10:58:53.906Z,101832.56
2023-08-17T11:04:13.651Z,101834.41
2023-08-17T11:09:19.762Z,101831.44
2023-08-17T11:14:23.564Z,101838.38
2023-08-17T11:19:28.802Z,101836.72
2023-08-17T11:24:33.359Z,101841.16
2023-08-17T11:29:37.598Z,101841.19
2023-08-17T11:34:42.853Z,101841.16
2023-08-17T11:39:46.606Z,101836.87
2023-08-17T11:44:51.083Z,101844.53
2023-08-17T11:50:14.755Z,101849.81
2023-08-17T11:55:23.203Z,101838.38
2023-08-17T12:00:27.087Z,101840.94
2023-08-17T12:05:34.368Z,101832.22
2023-08-17T12:10:39.609Z,101841.78
2023-08-17T12:15:44.270Z,101834.81
2023-08-17T12:20:54.886Z,101828.81
2023-08-17T12:25:58.918Z,101828.91
2023-08-17T12:31:04.394Z,101836.00
2023-08-17T12:36:10.273Z,101828.00
2023-08-17T12:41:14.207Z,101820.00
2023-08-17T12:46:18.072Z,101822.66
2023-08-17T12:51:23.193Z,101834.16
2023-08-17T12:56:26.995Z,101841.03
2023-08-17T13:01:30.879Z,101824.38
2023-08-17T13:06:44.167Z,101836.81
2023-08-17T13:11:51.658Z,101830.53
2023-08-17T13:16:55.494Z,101833.97
2023-08-17T13:22:00.668Z,101825.22
2023-08-17T13:27:04.905Z,101816.41
2023-08-17T13:32:08.626Z,101822.56
2023-08-17T13:37:13.818Z,101828.81
2023-08-17T13:42:17.566Z,101813.88
2023-08-17T13:47:21.452Z,101815.59
2023-08-17T13:52:26.963Z,101805.19
2023-08-17T13:57:31.151Z,101814.00
2023-08-17T14:02:35.192Z,101804.31
2023-08-17T14:07:40.702Z,101800.81
2023-08-17T14:12:44.419Z,101800.03
2023-08-17T14:17:48.155Z,101792.22
2023-08-17T14:22:53.275Z,101789.72
2023-08-17T14:27:57.041Z,101792.44
2023-08-17T14:33:01.357Z,101781.06
2023-08-17T14:38:08.766Z,101775.78
2023-08-17T14:43:14.784Z,101785.50
2023-08-17T14:48:22.377Z,101769.66
2023-08-17T14:53:27.749Z,101760.06
2023-08-17T14:58:31.397Z,101760.91
2023-08-17T15:03:35.472Z,101757.16
2023-08-17T15:08:40.674Z,101760.81
2023-08-17T15:13:44.934Z,101761.69
2023-08-17T15:18:48.683Z,101752.03
2023-08-17T15:23:53.873Z,101755.44
2023-08-17T15:28:57.616Z,101745.78
2023-08-17T15:34:01.430Z,101753.62
2023-08-17T15:39:07.071Z,101749.22
2023-08-17T15:44:11.024Z,101742.94
2023-08-17T15:49:14.748Z,101735.81
2023-08-17T15:54:33.483Z,101723.47
2023-08-17T15:59:40.928Z,101731.50
2023-08-17T16:04:44.684Z,101716.50
2023-08-17T16:09:49.747Z,101720.00
2023-08-17T16:14:53.520Z,101718.19
2023-08-17T16:19:57.274Z,101709.47
2023-08-17T16:25:02.462Z,101707.66
2023-08-17T16:30:07.664Z,101713.75
2023-08-17T16:35:11.474Z,101711.91
2023-08-17T16:40:31.926Z,101708.44
2023-08-17T16:45:40.407Z,101702.25
2023-08-17T16:50:44.552Z,101693.34
2023-08-17T16:55:55.084Z,101692.47
2023-08-17T17:00:59.378Z,101691.47
2023-08-17T17:06:03.350Z,101688.75
2023-08-17T17:11:09.398Z,101675.69
2023-08-17T17:16:13.219Z,101674.81
2023-08-17T17:21:17.007Z,101674.00
2023-08-17T17:26:22.448Z,101668.63
2023-08-17T17:31:26.229Z,101664.25
2023-08-17T17:36:30.190Z,101674.78
2023-08-17T17:41:35.257Z,101667.66
2023-08-17T17:46:39.099Z,101679.06
2023-08-17T17:51:42.843Z,101664.91
2023-08-17T17:56:48.380Z,101662.22
2023-08-17T18:01:52.157Z,101660.44
2023-08-17T18:06:55.929Z,101660.44
2023-08-17T18:12:00.981Z,101660.16
2023-08-17T18:17:04.837Z,101681.06
2023-08-17T18:22:08.583Z,101682.75
2023-08-17T18:27:13.737Z,101689.69
2023-08-17T18:32:17.531Z,101707.19
2023-08-17T18:37:21.438Z,101707.97
2023-08-17T18:42:27.789Z,101713.94
2023-08-17T18:47:31.705Z,101719.19
2023-08-17T18:52:35.988Z,101720.03
2023-08-17T18:57:42.156Z,101712.09
2023-08-17T19:02:45.945Z,101699.84
2023-08-17T19:07:49.699Z,101709.34
2023-08-17T19:12:54.984Z,101710.25
2023-08-17T19:17:58.817Z,101705.81
2023-08-17T19:23:02.561Z,101718.84
2023-08-17T19:28:09.190Z,101724.06
2023-08-17T19:33:12.997Z,101716.97
2023-08-17T19:38:16.738Z,101725.66
2023-08-17T19:43:21.774Z,101731.78
2023-08-17T19:48:25.553Z,101735.25
2023-08-17T19:53:29.279Z,101733.44
2023-08-17T19:58:34.397Z,101741.34
2023-08-17T20:03:38.263Z,101746.56
2023-08-17T20:08:42.110Z,101739.47
2023-08-17T20:13:47.601Z,101752.47
2023-08-17T20:18:51.988Z,101751.69
2023-08-17T20:23:55.749Z,101755.19
2023-08-17T20:29:00.859Z,101749.09
2023-08-17T20:34:04.618Z,101747.41
2023-08-17T20:39:09.245Z,101752.59
2023-08-17T20:44:15.256Z,101740.34
2023-08-17T20:49:19.027Z,101753.47
2023-08-17T20:54:23.514Z,101749.06
2023-08-17T20:59:28.834Z,101749.94
2023-08-17T21:04:32.824Z,101754.38
2023-08-17T21:09:36.606Z,101749.94
2023-08-17T21:14:41.666Z,101740.25
2023-08-17T21:19:45.454Z,101746.34
2023-08-17T21:24:49.235Z,101744.59
2023-08-17T21:29:54.357Z,101748.00
2023-08-17T21:34:58.139Z,101742.72
2023-08-17T21:40:01.892Z,101747.94
2023-08-17T21:45:08.165Z,101748.78
2023-08-17T21:50:12.845Z,101751.44
2023-08-17T21:55:16.799Z,101752.16
2023-08-17T22:00:21.956Z,101757.41
2023-08-17T22:05:25.691Z,101761.84
2023-08-17T22:10:29.468Z,101759.25
2023-08-17T22:15:34.593Z,101748.72
2023-08-17T22:20:41.111Z,101731.22
2023-08-17T22:25:45.517Z,101724.22
2023-08-17T22:30:50.689Z,101718.09
2023-08-17T22:35:54.462Z,101721.56
2023-08-17T22:40:58.237Z,101717.09
2023-08-17T22:46:05.067Z,101721.47
2023-08-17T22:51:10.323Z,101717.03
2023-08-17T22:56:14.068Z,101705.66
2023-08-17T23:01:19.246Z,101701.25
2023-08-17T23:06:23.091Z,101695.13
2023-08-17T23:11:26.833Z,101699.50
2023-08-17T23:16:32.007Z,101697.75
2023-08-17T23:21:35.881Z,101699.50
2023-08-17T23:26:39.621Z,101704.66
2023-08-17T23:31:44.906Z,101714.22
2023-08-17T23:36:48.709Z,101701.94
2023-08-17T23:41:52.446Z,101695.84
2023-08-17T23:46:57.595Z,101687.94
2023-08-17T23:52:01.744Z,101680.87
2023-08-17T23:57:05.861Z,101672.91
